createdAt,value
2023-03-26T09:12:59.101Z,31.78
2023-03-26T09:15:48.487Z,31.69
2023-03-26T09:18:34.897Z,31.57
2023-03-26T09:21:34.359Z,31.22
2023-03-26T09:24:14.171Z,32.15
2023-03-26T09:26:57.267Z,32.80
2023-03-26T09:29:46.265Z,30.65
2023-03-26T09:32:16.702Z,32.10
2023-03-26T09:35:02.442Z,34.31
2023-03-26T09:37:56.367Z,35.09
2023-03-26T09:40:59.100Z,35.28
2023-03-26T09:43:54.452Z,38.97
2023-03-26T09:46:33.365Z,37.36
2023-03-26T09:49:03.899Z,38.17
2023-03-26T09:51:34.172Z,35.28
2023-03-26T09:54:14.182Z,37.92
2023-03-26T09:57:11.153Z,35.03
2023-03-26T10:00:17.805Z,33.60
2023-03-26T10:02:57.510Z,33.46
2023-03-26T10:05:41.467Z,32.67
2023-03-26T10:08:52.582Z,34.18
2023-03-26T10:11:41.648Z,33.86
2023-03-26T10:14:24.074Z,31.66
2023-03-26T10:17:33.723Z,30.44
2023-03-26T10:20:40.655Z,30.76
2023-03-26T10:23:27.103Z,30.28
2023-03-26T10:26:14.875Z,27.64
2023-03-26T10:28:48.227Z,27.88
2023-03-26T10:31:15.826Z,27.77
2023-03-26T10:33:46.403Z,31.50
2023-03-26T10:36:29.507Z,32.86
2023-03-26T10:39:02.927Z,33.46
2023-03-26T10:41:37.180Z,34.68
2023-03-26T10:44:32.400Z,33.85
2023-03-26T10:47:32.048Z,31.67
2023-03-26T10:50:49.318Z,32.73
2023-03-26T10:53:40.845Z,30.91
2023-03-26T10:56:18.682Z,31.83
2023-03-26T10:58:50.396Z,32.32
2023-03-26T11:01:49.004Z,33.27
2023-03-26T11:04:48.508Z,32.16
2023-03-26T11:07:43.086Z,31.13
2023-03-26T11:10:24.343Z,32.71
2023-03-26T11:13:13.759Z,31.52
2023-03-26T11:16:00.534Z,32.20
2023-03-26T11:18:36.333Z,32.32
2023-03-26T11:21:24.016Z,34.27
2023-03-26T11:24:07.278Z,34.86
2023-03-26T11:26:58.013Z,35.50
2023-03-26T11:30:02.159Z,33.41
2023-03-26T11:32:42.077Z,35.80
2023-03-26T11:35:40.625Z,41.80
2023-03-26T11:38:16.168Z,41.44
2023-03-26T11:40:50.669Z,44.21
2023-03-26T11:43:49.784Z,43.61
2023-03-26T11:46:21.698Z,43.61
2023-03-26T11:49:03.431Z,42.34
2023-03-26T11:51:36.769Z,41.31
2023-03-26T11:54:07.908Z,40.56
2023-03-26T11:56:41.247Z,38.63
2023-03-26T11:59:45.134Z,34.50
2023-03-26T12:02:25.668Z,36.28
2023-03-26T12:05:08.310Z,35.74
2023-03-26T12:07:36.422Z,34.44
2023-03-26T12:10:20.743Z,34.63
2023-03-26T12:12:48.962Z,35.01
2023-03-26T12:15:20.186Z,33.45
2023-03-26T12:17:53.505Z,36.72
2023-03-26T12:20:27.370Z,36.16
2023-03-26T12:22:59.996Z,37.27
2023-03-26T12:25:39.610Z,35.61
2023-03-26T12:28:14.153Z,42.16
2023-03-26T12:30:58.149Z,41.41
2023-03-26T12:33:29.244Z,36.79
2023-03-26T12:36:00.627Z,36.31
2023-03-26T12:38:32.950Z,38.37
2023-03-26T12:44:42.447Z,35.94
2023-03-26T12:44:51.504Z,35.92
2023-03-26T12:47:59.262Z,35.65
2023-03-26T12:50:15.568Z,33.65
2023-03-26T12:52:56.362Z,33.12
2023-03-26T12:55:42.281Z,32.12
2023-03-26T12:58:34.503Z,32.30
2023-03-26T13:01:15.884Z,37.30
2023-03-26T13:03:56.021Z,36.60
2023-03-26T13:07:02.236Z,36.47
2023-03-26T13:09:53.415Z,35.37
2023-03-26T13:12:35.956Z,39.19
2023-03-26T13:15:31.241Z,40.01
2023-03-26T13:18:24.845Z,36.42
2023-03-26T13:23:56.490Z,39.91
2023-03-26T13:26:44.709Z,37.13
2023-03-26T13:29:26.227Z,40.51
2023-03-26T13:32:23.228Z,39.83
2023-03-26T13:34:53.920Z,41.61
2023-03-26T13:37:36.722Z,41.10
2023-03-26T13:40:10.281Z,42.85
2023-03-26T13:42:45.111Z,42.76
2023-03-26T13:45:32.889Z,38.34
2023-03-26T13:48:04.404Z,36.83
2023-03-26T13:50:42.877Z,37.02
2023-03-26T13:53:28.357Z,39.20
2023-03-26T13:56:00.531Z,37.74
2023-03-26T13:58:34.663Z,34.82
2023-03-26T14:01:09.531Z,37.68
2023-03-26T14:03:43.318Z,42.02
2023-03-26T14:06:22.999Z,43.27
2023-03-26T14:09:07.424Z,41.07
2023-03-26T14:11:58.082Z,42.10
2023-03-26T14:14:47.282Z,42.40
2023-03-26T14:17:29.089Z,39.39
2023-03-26T14:20:09.865Z,36.96
2023-03-26T14:22:43.936Z,38.99
2023-03-26T14:25:22.155Z,39.49
2023-03-26T14:28:11.119Z,38.84
2023-03-26T14:31:27.421Z,36.70
2023-03-26T14:34:17.048Z,35.60
2023-03-26T14:37:27.248Z,36.09
2023-03-26T14:40:25.261Z,35.09
2023-03-26T14:43:17.761Z,34.86
2023-03-26T14:45:59.564Z,35.09
2023-03-26T14:48:54.344Z,35.94
2023-03-26T14:51:22.073Z,34.44
2023-03-26T14:53:55.430Z,35.15
2023-03-26T14:56:44.863Z,36.34
2023-03-26T14:59:35.759Z,35.06
2023-03-26T15:02:26.514Z,35.71
2023-03-26T15:04:54.352Z,34.91
2023-03-26T15:07:37.102Z,35.23
2023-03-26T15:10:41.206Z,36.72
2023-03-26T15:13:26.543Z,35.32
2023-03-26T15:16:16.778Z,33.48
2023-03-26T15:19:13.328Z,34.54
2023-03-26T15:22:06.334Z,32.70
2023-03-26T15:24:52.709Z,31.89
2023-03-26T15:27:58.932Z,30.99
2023-03-26T15:30:54.548Z,31.91
2023-03-26T15:34:00.444Z,32.55
2023-03-26T15:37:00.344Z,30.99
2023-03-26T15:39:38.240Z,31.23
2023-03-26T15:42:17.115Z,29.99
2023-03-26T15:44:53.221Z,30.94
2023-03-26T15:47:58.370Z,31.26
2023-03-26T15:50:55.782Z,32.11
2023-03-26T15:54:00.905Z,32.61
2023-03-26T15:56:44.162Z,32.10
2023-03-26T15:59:31.030Z,30.97
2023-03-26T16:02:22.680Z,31.61
2023-03-26T16:04:57.540Z,31.00
2023-03-26T16:07:34.294Z,30.35
2023-03-26T16:10:40.812Z,29.88
2023-03-26T16:13:20.368Z,30.03
2023-03-26T16:16:16.966Z,30.07
2023-03-26T16:18:59.206Z,29.84
2023-03-26T16:21:36.459Z,28.98
2023-03-26T16:24:07.376Z,29.73
2023-03-26T16:26:54.964Z,30.29
2023-03-26T16:29:28.675Z,30.26
2023-03-26T16:32:19.968Z,30.49
2023-03-26T16:34:58.446Z,29.98
2023-03-26T16:37:33.652Z,30.89
2023-03-26T16:40:18.548Z,31.45
2023-03-26T16:43:24.308Z,31.18
2023-03-26T16:46:23.684Z,30.48
2023-03-26T16:49:21.017Z,30.74
2023-03-26T16:52:02.932Z,31.84
2023-03-26T16:54:48.702Z,31.34
2023-03-26T16:57:23.037Z,31.44
2023-03-26T17:00:07.189Z,30.55
2023-03-26T17:03:01.114Z,31.02
2023-03-26T17:05:56.533Z,31.16
2023-03-26T17:08:35.514Z,31.67
2023-03-26T17:11:09.560Z,31.32
2023-03-26T17:14:05.090Z,31.91
2023-03-26T17:16:36.068Z,31.73
2023-03-26T17:19:25.677Z,30.76
2023-03-26T17:22:08.360Z,32.68
2023-03-26T17:24:42.848Z,32.83
2023-03-26T17:27:50.011Z,32.49
2023-03-26T17:30:33.579Z,32.07
2023-03-26T17:33:05.963Z,32.56
2023-03-26T17:35:37.057Z,32.50
2023-03-26T17:38:29.736Z,32.35
2023-03-26T17:40:59.662Z,32.22
2023-03-26T17:43:59.994Z,32.29
2023-03-26T17:46:39.159Z,32.17
2023-03-26T17:49:12.977Z,29.95
2023-03-26T17:51:57.766Z,30.91
2023-03-26T17:54:34.668Z,30.15
2023-03-26T17:57:09.674Z,31.24
2023-03-26T17:59:41.110Z,31.70
2023-03-26T18:02:16.162Z,31.42
2023-03-26T18:04:48.418Z,31.79
2023-03-26T18:07:51.521Z,31.98
2023-03-26T18:10:39.002Z,31.91
2023-03-26T18:13:39.634Z,31.85
2023-03-26T18:16:37.052Z,31.85
2023-03-26T18:19:18.545Z,31.85
2023-03-26T18:21:50.232Z,31.33
2023-03-26T18:24:24.786Z,31.82
2023-03-26T18:26:54.941Z,32.13
2023-03-26T18:29:31.288Z,31.85
2023-03-26T18:32:02.528Z,31.85
2023-03-26T18:34:32.881Z,31.69
2023-03-26T18:37:22.608Z,31.91
2023-03-26T18:40:00.800Z,31.74
2023-03-26T18:42:31.738Z,31.05
2023-03-26T18:45:05.938Z,31.21
2023-03-26T18:47:34.007Z,30.49
2023-03-26T18:50:02.408Z,30.26
2023-03-26T18:52:32.267Z,30.78
2023-03-26T18:55:03.183Z,30.34
2023-03-26T18:57:31.475Z,30.31
2023-03-26T19:00:18.410Z,29.80
2023-03-26T19:02:49.840Z,30.11
2023-03-26T19:05:20.105Z,30.46
2023-03-26T19:07:49.481Z,28.66
2023-03-26T19:10:21.325Z,30.38
2023-03-26T19:13:01.441Z,31.21
2023-03-26T19:15:34.293Z,30.39
2023-03-26T19:18:14.201Z,30.77
2023-03-26T19:20:50.046Z,31.11
2023-03-26T19:23:26.544Z,31.54
2023-03-26T19:25:57.093Z,30.95
2023-03-26T19:28:32.764Z,31.13
2023-03-26T19:31:11.908Z,31.79
2023-03-26T19:33:42.699Z,30.68
2023-03-26T19:36:13.927Z,31.28
2023-03-26T19:38:52.898Z,31.61
2023-03-26T19:41:32.164Z,31.04
2023-03-26T19:44:03.304Z,28.32
2023-03-26T19:46:34.358Z,30.68
2023-03-26T19:49:33.909Z,30.28
2023-03-26T19:52:19.998Z,30.14
2023-03-26T19:55:01.460Z,30.40
2023-03-26T19:57:34.737Z,30.67
2023-03-26T20:00:13.394Z,30.62
2023-03-26T20:02:46.338Z,30.31
2023-03-26T20:05:26.510Z,30.57
2023-03-26T20:08:00.317Z,30.52
2023-03-26T20:10:28.207Z,29.99
2023-03-26T20:12:56.061Z,30.20
2023-03-26T20:15:32.123Z,30.64
2023-03-26T20:18:00.919Z,30.48
2023-03-26T20:20:29.112Z,30.32
2023-03-26T20:22:57.006Z,30.17
2023-03-26T20:25:40.658Z,30.56
2023-03-26T20:28:10.321Z,29.26
2023-03-26T20:30:39.868Z,29.37
2023-03-26T20:33:18.295Z,30.80
2023-03-26T20:35:47.333Z,29.64
2023-03-26T20:38:15.077Z,28.98
2023-03-26T20:40:44.871Z,30.18
2023-03-26T20:43:14.895Z,30.64
2023-03-26T20:45:42.928Z,30.61
2023-03-26T20:48:11.859Z,30.30
2023-03-26T20:51:01.531Z,30.74
2023-03-26T20:53:30.471Z,30.39
2023-03-26T20:55:58.370Z,30.21
2023-03-26T20:58:31.916Z,30.20
2023-03-26T21:01:02.035Z,30.78
2023-03-26T21:03:30.315Z,30.48
2023-03-26T21:06:06.272Z,28.40
2023-03-26T21:08:34.143Z,29.73
2023-03-26T21:11:02.780Z,28.67
2023-03-26T21:13:41.917Z,29.63
2023-03-26T21:16:10.345Z,27.13
2023-03-26T21:18:38.424Z,25.75
2023-03-26T21:21:21.190Z,25.88
2023-03-26T21:24:03.289Z,26.37
2023-03-26T21:26:45.221Z,26.87
2023-03-26T21:29:13.275Z,25.63
2023-03-26T21:31:41.159Z,28.18
2023-03-26T21:34:09.728Z,29.67
2023-03-26T21:36:37.503Z,29.43
2023-03-26T21:39:06.498Z,30.03
2023-03-26T21:41:46.931Z,30.79
2023-03-26T21:44:16.451Z,30.54
2023-03-26T21:46:46.657Z,30.45
2023-03-26T21:49:17.377Z,30.34
2023-03-26T21:51:45.767Z,30.23
2023-03-26T21:54:33.120Z,29.67
2023-03-26T21:57:12.535Z,30.55
2023-03-26T22:00:14.726Z,27.76
2023-03-26T22:03:07.286Z,30.15
2023-03-26T22:05:46.979Z,30.04
2023-03-26T22:08:33.973Z,30.42
2023-03-26T22:11:01.506Z,30.51
2023-03-26T22:13:29.321Z,28.38
2023-03-26T22:15:57.674Z,28.59
2023-03-26T22:18:26.080Z,28.54
2023-03-26T22:20:54.249Z,28.08
2023-03-26T22:23:23.126Z,29.03
2023-03-26T22:25:51.506Z,28.51
2023-03-26T22:28:19.598Z,27.72
2023-03-26T22:30:47.303Z,28.80
2023-03-26T22:33:19.008Z,29.76
2023-03-26T22:35:47.005Z,28.72
2023-03-26T22:38:14.963Z,29.19
2023-03-26T22:40:43.017Z,29.18
2023-03-26T22:43:10.550Z,28.06
2023-03-26T22:45:38.195Z,28.25
2023-03-26T22:48:05.934Z,28.73
2023-03-26T22:50:34.890Z,30.01
2023-03-26T22:53:02.501Z,28.37
2023-03-26T22:55:30.416Z,27.88
2023-03-26T22:57:58.249Z,29.01
2023-03-26T23:00:26.501Z,27.83
2023-03-26T23:02:55.981Z,28.13
2023-03-26T23:05:23.673Z,29.80
2023-03-26T23:07:52.263Z,29.50
2023-03-26T23:10:21.847Z,29.15
2023-03-26T23:12:49.703Z,29.42
2023-03-26T23:15:17.258Z,28.51
2023-03-26T23:17:44.837Z,27.30
2023-03-26T23:20:22.808Z,28.49
2023-03-26T23:22:50.688Z,28.32
2023-03-26T23:25:18.328Z,28.68
2023-03-26T23:27:45.878Z,27.89
2023-03-26T23:30:15.085Z,26.70
2023-03-26T23:32:42.696Z,26.67
2023-03-26T23:35:11.224Z,27.58
2023-03-26T23:37:42.317Z,28.72
2023-03-26T23:40:11.133Z,26.11
2023-03-26T23:42:39.103Z,26.37
2023-03-26T23:45:08.423Z,26.75
2023-03-26T23:47:36.265Z,26.82
2023-03-26T23:50:05.111Z,28.40
2023-03-26T23:52:32.801Z,28.29
2023-03-26T23:55:00.460Z,26.55
2023-03-26T23:57:28.348Z,27.76
2023-03-26T23:59:58.411Z,28.44
